Time;durP1;ratioP1;P1;durP2;ratioP2;P2;SDS_P1;SDS_P2;PMS_P1;PMS_P2;Temp;Humidity;BMP_temperature;BMP_pressure;BME280_temperature;BME280_humidity;BME280_pressure;Samples;Min_cycle;Max_cycle;Signal;HPM_P1;HPM_P2
2022/10/10 00:00:53;;;;;;;6.32;3.03;;;11.30;99.90;;;;;;5032261;28;20140;-63
2022/10/10 00:03:19;;;;;;;8.15;2.67;;;11.30;99.90;;;;;;5032044;28;20053;-64
2022/10/10 00:05:46;;;;;;;7.00;2.88;;;11.30;99.90;;;;;;5031940;28;20069;-64
2022/10/10 00:08:13;;;;;;;8.27;2.72;;;11.30;99.90;;;;;;5031862;28;20045;-63
2022/10/10 00:10:39;;;;;;;9.25;3.45;;;11.30;99.90;;;;;;5014179;28;20507;-63
2022/10/10 00:13:06;;;;;;;8.85;3.25;;;11.30;99.90;;;;;;5032160;28;20042;-63
2022/10/10 00:15:33;;;;;;;6.35;2.30;;;11.40;99.90;;;;;;5032025;28;20054;-64
2022/10/10 00:17:59;;;;;;;4.93;2.20;;;11.40;99.90;;;;;;5030645;28;20037;-64
2022/10/10 00:20:26;;;;;;;6.15;2.60;;;11.40;99.90;;;;;;5031939;28;20055;-64
2022/10/10 00:22:53;;;;;;;6.45;2.80;;;11.40;99.90;;;;;;5031444;28;20045;-64
2022/10/10 00:25:20;;;;;;;5.82;2.40;;;11.50;99.90;;;;;;5031772;28;20412;-61
2022/10/10 00:27:47;;;;;;;5.72;2.17;;;11.40;99.90;;;;;;5031383;28;20496;-64
2022/10/10 00:30:13;;;;;;;3.88;1.95;;;11.50;99.90;;;;;;5030034;28;20057;-63
2022/10/10 00:32:40;;;;;;;7.22;2.33;;;11.50;99.90;;;;;;4681477;28;9999871;-64
2022/10/10 00:35:07;;;;;;;4.00;2.20;;;11.60;99.90;;;;;;5031019;28;20061;-64
2022/10/10 00:37:34;;;;;;;11.55;3.50;;;11.60;99.90;;;;;;5031726;28;20038;-64
2022/10/10 00:40:01;;;;;;;7.68;3.63;;;11.50;99.90;;;;;;5031691;28;20052;-63
2022/10/10 00:42:27;;;;;;;7.75;3.75;;;11.50;99.90;;;;;;5031467;28;20045;-63
2022/10/10 00:45:20;;;;;;;6.97;2.70;;;11.60;99.90;;;;;;5031344;28;20049;-63
2022/10/10 00:47:47;;;;;;;6.72;3.00;;;11.50;99.90;;;;;;5013546;28;20050;-63
2022/10/10 00:50:14;;;;;;;7.40;2.58;;;11.50;99.90;;;;;;5014039;28;20053;-62
2022/10/10 00:52:41;;;;;;;4.63;2.15;;;11.50;99.90;;;;;;5013597;28;20045;-63
2022/10/10 00:55:07;;;;;;;6.78;2.55;;;11.50;99.90;;;;;;5031130;28;20061;-63
2022/10/10 00:57:34;;;;;;;7.65;2.97;;;11.50;99.90;;;;;;5030819;28;20041;-63
2022/10/10 01:00:01;;;;;;;6.47;2.70;;;11.60;99.90;;;;;;5013404;28;20424;-62
2022/10/10 01:02:28;;;;;;;7.53;3.03;;;11.60;99.90;;;;;;5030872;28;20041;-64
2022/10/10 01:04:55;;;;;;;7.20;2.83;;;11.70;99.90;;;;;;5029809;28;20059;-64
2022/10/10 01:07:26;;;;;;;9.30;3.40;;;11.70;99.90;;;;;;5029612;28;20153;-64
2022/10/10 01:09:55;;;;;;;5.20;2.65;;;11.70;99.90;;;;;;5008998;28;20041;-63
2022/10/10 01:12:39;;;;;;;4.63;2.40;;;11.70;99.90;;;;;;5013371;28;20041;-63
2022/10/10 01:15:22;;;;;;;6.90;2.50;;;11.60;99.90;;;;;;5027548;28;20045;-64
2022/10/10 01:17:51;;;;;;;10.27;2.72;;;11.60;99.90;;;;;;5013017;28;20132;-63
2022/10/10 01:20:40;;;;;;;7.47;2.80;;;11.60;99.90;;;;;;5013108;28;20049;-63
2022/10/10 01:23:25;;;;;;;8.27;2.60;;;11.60;99.90;;;;;;4996508;28;20512;-61
2022/10/10 01:26:17;;;;;;;7.07;2.40;;;11.70;99.90;;;;;;5020047;28;20041;-63
2022/10/10 01:28:54;;;;;;;8.85;2.80;;;11.70;99.90;;;;;;5030345;28;20052;-63
2022/10/10 01:31:22;;;;;;;9.50;3.58;;;11.80;99.90;;;;;;5013017;28;20059;-63
2022/10/10 01:34:08;;;;;;;4.20;2.15;;;11.80;99.90;;;;;;5013010;28;20045;-63
2022/10/10 01:36:48;;;;;;;10.10;2.58;;;11.80;99.90;;;;;;5013691;28;20045;-63
2022/10/10 01:39:23;;;;;;;12.05;2.97;;;11.90;99.90;;;;;;5013485;28;20049;-63
2022/10/10 01:42:02;;;;;;;5.20;2.30;;;11.90;99.90;;;;;;5030177;28;20045;-64
2022/10/10 01:44:29;;;;;;;8.30;2.72;;;11.90;99.90;;;;;;5014201;28;20049;-64
2022/10/10 01:46:57;;;;;;;11.05;2.95;;;11.90;99.90;;;;;;5030284;28;20056;-63
2022/10/10 01:49:25;;;;;;;5.25;2.35;;;11.90;99.90;;;;;;5029816;28;20049;-64
2022/10/10 01:52:06;;;;;;;9.82;2.65;;;11.90;99.90;;;;;;5012340;28;20049;-65
2022/10/10 01:54:56;;;;;;;5.47;2.10;;;11.90;99.90;;;;;;4995955;28;20056;-64
2022/10/10 01:57:31;;;;;;;8.38;3.03;;;11.90;99.90;;;;;;5022249;28;20053;-66
2022/10/10 02:00:08;;;;;;;4.95;2.22;;;11.90;99.90;;;;;;5029909;28;20052;-64
2022/10/10 02:02:56;;;;;;;6.43;2.30;;;11.90;99.90;;;;;;5012568;28;20051;-65
2022/10/10 02:05:48;;;;;;;7.57;2.40;;;12.00;99.90;;;;;;5029652;28;20081;-64
2022/10/10 02:08:35;;;;;;;6.32;2.20;;;11.90;99.90;;;;;;5009459;28;20072;-64
2022/10/10 02:11:04;;;;;;;5.88;3.08;;;12.00;99.90;;;;;;5011848;28;20492;-62
2022/10/10 02:13:45;;;;;;;7.43;2.65;;;12.00;99.90;;;;;;5029517;28;20471;-63
2022/10/10 02:16:20;;;;;;;5.80;2.25;;;12.00;99.90;;;;;;5011708;28;20500;-63
2022/10/10 02:18:47;;;;;;;12.00;4.55;;;11.90;99.90;;;;;;5011877;28;20488;-64
2022/10/10 02:21:14;;;;;;;5.47;2.60;;;12.00;99.90;;;;;;5011685;28;20053;-63
2022/10/10 02:23:45;;;;;;;7.15;2.15;;;11.90;99.90;;;;;;5011849;28;20045;-64
2022/10/10 02:26:12;;;;;;;4.93;2.25;;;12.00;99.90;;;;;;5011734;28;20049;-64
2022/10/10 02:28:44;;;;;;;5.75;2.50;;;11.90;99.90;;;;;;5011893;28;20049;-64
2022/10/10 02:31:14;;;;;;;6.15;2.20;;;11.90;99.90;;;;;;4995836;28;20049;-64
2022/10/10 02:33:47;;;;;;;10.02;3.20;;;12.00;99.90;;;;;;5011648;28;20128;-64
2022/10/10 02:36:13;;;;;;;12.50;2.47;;;12.00;99.90;;;;;;5011398;28;20132;-64
2022/10/10 02:38:41;;;;;;;6.03;2.20;;;12.00;99.90;;;;;;5011693;28;20180;-63
2022/10/10 02:41:08;;;;;;;6.18;2.45;;;12.10;99.90;;;;;;5011532;28;20041;-64
2022/10/10 02:43:35;;;;;;;7.80;2.25;;;12.10;99.90;;;;;;5011554;28;20054;-65
2022/10/10 02:46:02;;;;;;;5.10;2.25;;;12.10;99.90;;;;;;5011383;28;20057;-65
2022/10/10 02:48:29;;;;;;;4.75;3.08;;;12.20;99.90;;;;;;5011312;28;20045;-65
2022/10/10 02:50:56;;;;;;;7.57;2.72;;;12.20;99.90;;;;;;5011124;28;20049;-64
2022/10/10 02:53:22;;;;;;;4.57;2.10;;;12.20;99.90;;;;;;5011436;28;20045;-64
2022/10/10 02:55:49;;;;;;;7.53;2.05;;;12.30;99.90;;;;;;5028909;28;20056;-64
2022/10/10 02:58:16;;;;;;;7.00;2.42;;;12.30;99.90;;;;;;5029036;28;20045;-64
2022/10/10 03:00:43;;;;;;;4.35;2.05;;;12.40;99.90;;;;;;5028849;28;20053;-63
2022/10/10 03:03:10;;;;;;;5.97;2.10;;;12.40;99.90;;;;;;5028501;28;20053;-63
2022/10/10 03:05:36;;;;;;;6.82;2.00;;;12.40;99.90;;;;;;5028561;28;20054;-63
2022/10/10 03:08:03;;;;;;;5.13;2.13;;;12.40;99.90;;;;;;5028312;28;20054;-64
2022/10/10 03:10:36;;;;;;;5.65;1.92;;;12.50;99.90;;;;;;5028416;28;20390;-63
2022/10/10 03:13:03;;;;;;;9.15;2.42;;;12.50;99.90;;;;;;5028524;28;20056;-64
2022/10/10 03:15:30;;;;;;;6.72;2.60;;;12.60;99.90;;;;;;5028486;28;20524;-64
2022/10/10 03:17:57;;;;;;;7.38;2.22;;;12.60;99.90;;;;;;5028127;28;20531;-65
2022/10/10 03:20:23;;;;;;;6.85;1.63;;;12.60;99.90;;;;;;5028833;28;20057;-64
2022/10/10 03:22:50;;;;;;;6.57;2.30;;;12.70;99.90;;;;;;5028191;28;20052;-65
2022/10/10 03:25:17;;;;;;;4.55;1.77;;;12.70;99.90;;;;;;5028548;28;20045;-66
2022/10/10 03:27:44;;;;;;;5.03;1.95;;;12.70;99.90;;;;;;5010633;28;20052;-64
2022/10/10 03:30:11;;;;;;;9.52;2.30;;;12.70;99.90;;;;;;5028348;28;20072;-64
2022/10/10 03:32:38;;;;;;;4.13;1.92;;;12.80;99.90;;;;;;5028094;28;20045;-64
2022/10/10 03:35:05;;;;;;;4.10;1.88;;;12.80;99.90;;;;;;5028286;28;20052;-63
2022/10/10 03:37:32;;;;;;;5.03;1.92;;;12.80;99.90;;;;;;5028349;28;20087;-63
2022/10/10 03:39:58;;;;;;;5.57;1.92;;;12.90;99.90;;;;;;5010910;28;20041;-63
2022/10/10 03:42:25;;;;;;;4.22;1.73;;;13.00;99.90;;;;;;5028292;28;20622;-63
2022/10/10 03:44:52;;;;;;;3.78;1.60;;;13.00;99.90;;;;;;5028106;28;20048;-64
2022/10/10 03:47:19;;;;;;;4.78;2.00;;;13.00;99.90;;;;;;5028810;28;20049;-64
2022/10/10 03:49:45;;;;;;;7.47;2.00;;;13.10;99.90;;;;;;5028133;28;20053;-64
2022/10/10 03:52:12;;;;;;;8.00;2.25;;;13.10;99.90;;;;;;5028185;28;20523;-64
2022/10/10 03:54:39;;;;;;;6.35;1.98;;;13.10;99.90;;;;;;5027884;28;20046;-64
2022/10/10 03:57:05;;;;;;;7.90;3.40;;;13.10;99.90;;;;;;5028253;28;20053;-64
2022/10/10 03:59:32;;;;;;;5.68;1.60;;;13.10;99.90;;;;;;5027924;28;20297;-64
2022/10/10 04:01:59;;;;;;;4.90;1.80;;;13.20;99.90;;;;;;5028039;28;20045;-63
2022/10/10 04:04:26;;;;;;;5.75;1.98;;;13.20;99.90;;;;;;5025903;28;20041;-63
2022/10/10 04:06:52;;;;;;;6.75;2.40;;;13.30;99.90;;;;;;5028154;28;20061;-64
2022/10/10 04:09:19;;;;;;;3.40;1.63;;;13.30;99.90;;;;;;5027847;28;20412;-63
2022/10/10 04:11:46;;;;;;;7.78;2.20;;;13.40;99.90;;;;;;5028071;28;20240;-63
2022/10/10 04:14:13;;;;;;;8.93;2.40;;;13.40;99.90;;;;;;5009968;28;20052;-63
2022/10/10 04:16:39;;;;;;;3.60;1.58;;;13.30;99.90;;;;;;5028171;28;20536;-64
2022/10/10 04:19:06;;;;;;;6.70;3.15;;;13.30;99.90;;;;;;5027879;28;20042;-65
2022/10/10 04:21:33;;;;;;;5.25;2.10;;;13.40;99.90;;;;;;5031416;28;20056;-65
2022/10/10 04:24:00;;;;;;;5.40;1.75;;;13.40;99.90;;;;;;5031717;28;20041;-64
2022/10/10 04:26:26;;;;;;;7.47;2.28;;;13.40;99.90;;;;;;5031708;28;20124;-64
2022/10/10 04:28:53;;;;;;;6.13;2.22;;;13.40;99.90;;;;;;5031791;28;20046;-63
2022/10/10 04:31:20;;;;;;;6.22;2.08;;;13.40;99.90;;;;;;5031085;28;20053;-62
2022/10/10 04:33:47;;;;;;;7.50;2.50;;;13.40;99.90;;;;;;5031449;28;20049;-64
2022/10/10 04:36:16;;;;;;;10.00;2.20;;;13.40;99.90;;;;;;5031232;28;20061;-64
2022/10/10 04:38:43;;;;;;;7.63;2.53;;;13.40;99.90;;;;;;5031350;28;20053;-64
2022/10/10 04:41:09;;;;;;;8.85;2.22;;;13.40;99.90;;;;;;5030943;28;20046;-64
2022/10/10 04:43:36;;;;;;;11.25;2.65;;;13.40;99.90;;;;;;5031421;28;20069;-64
2022/10/10 04:46:03;;;;;;;6.45;2.58;;;13.60;99.90;;;;;;5031032;28;20053;-65
2022/10/10 04:48:30;;;;;;;6.55;2.10;;;13.60;99.90;;;;;;5031199;28;20055;-64
2022/10/10 04:50:57;;;;;;;11.98;2.72;;;13.70;99.90;;;;;;5030762;28;20519;-63
2022/10/10 04:53:24;;;;;;;12.73;2.85;;;13.80;99.90;;;;;;5030947;28;20052;-65
2022/10/10 04:55:51;;;;;;;4.78;1.52;;;13.90;99.90;;;;;;5031127;28;20049;-65
2022/10/10 04:58:18;;;;;;;8.68;1.90;;;13.90;99.90;;;;;;5031117;28;20045;-65
2022/10/10 05:00:45;;;;;;;5.50;1.77;;;14.00;99.90;;;;;;5030415;28;20095;-64
2022/10/10 05:03:12;;;;;;;6.60;1.60;;;14.00;99.90;;;;;;5013014;28;20057;-65
2022/10/10 05:05:39;;;;;;;9.35;1.90;;;14.10;99.90;;;;;;5030220;28;20535;-63
2022/10/10 05:08:05;;;;;;;4.65;1.70;;;14.10;99.90;;;;;;5030652;28;20052;-63
2022/10/10 05:10:39;;;;;;;3.65;1.80;;;14.10;99.90;;;;;;5030727;28;20061;-64
2022/10/10 05:13:07;;;;;;;6.65;1.80;;;14.20;99.90;;;;;;5031018;28;20053;-63
2022/10/10 05:15:34;;;;;;;9.98;2.60;;;14.20;99.90;;;;;;5030496;28;20046;-65
2022/10/10 05:18:01;;;;;;;3.55;1.83;;;14.20;99.90;;;;;;5030267;28;20045;-63
2022/10/10 05:20:28;;;;;;;3.45;1.55;;;14.20;99.90;;;;;;5030501;28;20499;-65
2022/10/10 05:22:55;;;;;;;6.68;2.22;;;14.20;99.90;;;;;;5029930;28;20053;-64
2022/10/10 05:25:21;;;;;;;12.30;3.38;;;14.20;99.90;;;;;;5030516;28;20052;-64
2022/10/10 05:27:48;;;;;;;4.57;2.35;;;14.30;99.90;;;;;;5012412;28;20100;-64
2022/10/10 05:30:15;;;;;;;5.25;1.98;;;14.30;99.90;;;;;;5030170;28;20381;-64
2022/10/10 05:32:42;;;;;;;9.93;2.58;;;14.30;99.90;;;;;;5029330;28;20079;-64
2022/10/10 05:35:08;;;;;;;10.40;2.22;;;14.40;99.90;;;;;;5029910;28;20046;-64
2022/10/10 05:37:35;;;;;;;4.82;2.08;;;14.40;99.90;;;;;;5012239;28;20046;-65
2022/10/10 05:40:02;;;;;;;7.45;2.00;;;14.30;99.90;;;;;;5030122;28;20053;-64
2022/10/10 05:42:29;;;;;;;8.43;2.78;;;14.40;99.90;;;;;;5029655;28;20056;-63
2022/10/10 05:44:56;;;;;;;6.82;2.25;;;14.40;99.90;;;;;;5029822;28;20056;-63
2022/10/10 05:47:24;;;;;;;9.52;2.65;;;14.40;99.90;;;;;;5029304;28;20128;-63
2022/10/10 05:49:53;;;;;;;9.25;2.50;;;14.40;99.90;;;;;;5029553;28;20053;-63
2022/10/10 05:52:20;;;;;;;4.80;2.60;;;14.40;99.90;;;;;;5029268;28;20496;-64
2022/10/10 05:54:47;;;;;;;9.77;2.42;;;14.40;99.90;;;;;;5018765;28;20056;-64
2022/10/10 05:57:16;;;;;;;4.47;1.98;;;14.40;99.90;;;;;;5029459;28;20056;-64
2022/10/10 05:59:43;;;;;;;8.23;2.72;;;14.40;99.90;;;;;;5012116;28;20118;-67
2022/10/10 06:02:12;;;;;;;7.65;2.33;;;14.40;99.90;;;;;;5029290;28;20045;-64
2022/10/10 06:04:39;;;;;;;10.38;2.78;;;14.40;99.90;;;;;;5029132;28;20045;-64
2022/10/10 06:07:05;;;;;;;7.07;2.45;;;14.30;99.90;;;;;;5029122;28;20532;-63
2022/10/10 06:09:32;;;;;;;8.00;2.58;;;14.20;99.90;;;;;;5029024;28;20445;-63
2022/10/10 06:11:59;;;;;;;7.82;3.10;;;14.10;99.90;;;;;;5029319;28;20085;-63
2022/10/10 06:14:26;;;;;;;7.63;3.05;;;14.10;99.90;;;;;;4991810;28;20479;-63
2022/10/10 06:16:53;;;;;;;8.73;2.83;;;14.10;99.90;;;;;;5029132;28;20056;-63
2022/10/10 06:19:20;;;;;;;7.72;3.17;;;14.00;99.90;;;;;;5028758;28;20057;-63
2022/10/10 06:21:48;;;;;;;9.88;3.65;;;13.90;99.90;;;;;;5029384;28;20045;-65
2022/10/10 06:24:14;;;;;;;10.85;3.38;;;13.90;99.90;;;;;;5029022;28;20072;-65
2022/10/10 06:26:41;;;;;;;11.23;3.65;;;13.80;99.90;;;;;;5029081;28;20060;-65
2022/10/10 06:29:08;;;;;;;10.35;3.53;;;13.60;99.90;;;;;;5028794;28;20045;-64
2022/10/10 06:31:38;;;;;;;12.00;3.25;;;13.50;99.90;;;;;;5028384;28;20081;-64
2022/10/10 06:34:05;;;;;;;9.77;3.67;;;13.30;99.90;;;;;;5028620;28;20091;-66
2022/10/10 06:36:32;;;;;;;12.90;4.05;;;13.20;99.90;;;;;;5028886;28;20173;-68
2022/10/10 06:38:58;;;;;;;13.15;4.70;;;13.10;99.90;;;;;;5028434;28;20041;-67
2022/10/10 06:41:25;;;;;;;18.88;3.38;;;13.10;99.90;;;;;;5029127;28;20053;-67
2022/10/10 06:43:52;;;;;;;6.15;3.40;;;13.00;99.90;;;;;;5027459;28;20475;-69
2022/10/10 06:46:18;;;;;;;12.70;4.10;;;12.90;99.90;;;;;;5027756;28;20645;-69
2022/10/10 06:48:45;;;;;;;11.70;3.95;;;12.90;99.90;;;;;;5027268;28;20056;-70
2022/10/10 06:51:14;;;;;;;12.80;4.63;;;12.80;99.90;;;;;;5027353;28;20132;-72
2022/10/10 06:53:41;;;;;;;12.23;4.75;;;12.70;99.90;;;;;;5028286;28;20053;-70
2022/10/10 06:56:19;;;;;;;12.32;4.88;;;12.70;99.90;;;;;;5010397;28;20562;-70
2022/10/10 06:58:52;;;;;;;;;;;12.80;99.90;;;;;;5027506;28;20579;-72
2022/10/10 07:01:20;;;;;;;9.27;4.03;;;12.70;99.90;;;;;;5014680;28;19921;-72
2022/10/10 07:03:47;;;;;;;6.50;3.25;;;12.70;99.90;;;;;;5026125;28;20119;-67
2022/10/10 07:06:14;;;;;;;7.07;3.88;;;12.60;99.90;;;;;;5026605;28;20088;-71
2022/10/10 07:08:41;;;;;;;10.77;5.68;;;12.60;99.90;;;;;;5009460;28;20048;-71
2022/10/10 07:11:08;;;;;;;9.57;3.83;;;12.60;99.90;;;;;;5005402;28;20154;-73
2022/10/10 07:13:35;;;;;;;6.55;3.42;;;12.60;99.90;;;;;;5027557;28;20055;-72
2022/10/10 07:16:02;;;;;;;7.03;2.28;;;12.60;99.90;;;;;;5028545;28;20054;-67
2022/10/10 07:18:29;;;;;;;3.03;1.58;;;12.40;99.90;;;;;;5028862;28;20103;-64
2022/10/10 07:20:57;;;;;;;8.32;1.70;;;12.20;99.90;;;;;;5029977;28;20073;-67
2022/10/10 07:23:24;;;;;;;9.63;1.60;;;12.10;99.90;;;;;;5012422;28;20129;-69
2022/10/10 07:25:51;;;;;;;9.85;2.30;;;12.00;99.90;;;;;;5029084;28;20061;-67
2022/10/10 07:28:18;;;;;;;9.23;1.83;;;11.90;99.90;;;;;;5028911;28;20049;-68
2022/10/10 07:30:45;;;;;;;10.98;2.22;;;11.80;99.90;;;;;;5027866;28;20152;-67
2022/10/10 07:33:12;;;;;;;9.05;1.65;;;11.80;99.90;;;;;;5028174;28;20076;-66
2022/10/10 07:35:39;;;;;;;6.13;1.67;;;11.70;99.90;;;;;;5028085;28;20129;-67
2022/10/10 07:38:06;;;;;;;7.22;2.45;;;11.70;99.90;;;;;;5010395;28;20046;-67
2022/10/10 07:40:33;;;;;;;5.93;2.15;;;11.60;99.90;;;;;;5027845;28;20057;-66
2022/10/10 07:43:00;;;;;;;5.93;1.80;;;11.50;99.90;;;;;;5028177;28;20050;-68
2022/10/10 07:45:26;;;;;;;13.75;2.50;;;11.40;99.90;;;;;;5027945;28;20301;-68
2022/10/10 07:47:53;;;;;;;12.35;1.88;;;11.40;99.90;;;;;;5027714;28;20050;-68
2022/10/10 07:50:20;;;;;;;8.30;1.65;;;11.40;99.90;;;;;;5028161;28;20046;-67
2022/10/10 07:52:47;;;;;;;9.75;1.90;;;11.40;99.90;;;;;;5027492;28;20054;-66
2022/10/10 07:55:14;;;;;;;8.32;1.75;;;11.30;99.90;;;;;;5011426;28;20046;-65
2022/10/10 07:57:41;;;;;;;7.95;1.90;;;11.40;99.90;;;;;;5031655;28;20041;-67
2022/10/10 08:00:10;;;;;;;12.02;2.70;;;11.30;99.90;;;;;;5013881;28;20520;-65
2022/10/10 08:02:37;;;;;;;6.60;1.77;;;11.20;99.90;;;;;;5031894;28;20228;-66
2022/10/10 08:05:04;;;;;;;14.18;1.80;;;11.10;99.90;;;;;;5031459;28;20045;-66
2022/10/10 08:07:31;;;;;;;5.45;1.50;;;11.10;99.90;;;;;;5031026;28;20626;-67
2022/10/10 08:09:58;;;;;;;5.53;1.38;;;11.00;99.90;;;;;;5014021;28;20068;-65
2022/10/10 08:12:25;;;;;;;9.95;2.03;;;11.00;99.90;;;;;;5031267;28;20045;-67
2022/10/10 08:14:52;;;;;;;8.90;1.95;;;10.90;99.90;;;;;;5031468;28;20049;-66
2022/10/10 08:17:19;;;;;;;6.00;1.98;;;10.90;99.90;;;;;;5031561;28;20076;-65
2022/10/10 08:19:45;;;;;;;11.05;1.85;;;10.90;99.90;;;;;;5029641;28;20121;-65
2022/10/10 08:22:12;;;;;;;6.43;1.27;;;10.90;99.90;;;;;;5029360;28;20052;-66
2022/10/10 08:24:39;;;;;;;13.65;2.72;;;10.90;99.90;;;;;;5029323;28;20064;-64
2022/10/10 08:27:06;;;;;;;12.95;1.55;;;10.90;99.90;;;;;;5029398;28;20049;-64
2022/10/10 08:29:33;;;;;;;10.75;1.70;;;10.90;99.90;;;;;;5029183;28;20048;-65
2022/10/10 08:31:59;;;;;;;8.82;1.42;;;10.90;99.90;;;;;;5029252;28;20049;-65
2022/10/10 08:34:26;;;;;;;10.93;1.85;;;11.00;99.90;;;;;;5028646;28;20087;-66
2022/10/10 08:36:53;;;;;;;8.23;1.50;;;11.00;99.90;;;;;;5031494;28;20049;-65
2022/10/10 08:39:20;;;;;;;11.63;1.90;;;11.10;99.90;;;;;;5013000;28;20041;-65
2022/10/10 08:41:55;;;;;;;9.15;1.60;;;11.10;99.90;;;;;;5031180;28;20120;-66
2022/10/10 08:44:24;;;;;;;13.35;1.85;;;11.20;99.90;;;;;;5030578;28;20053;-66
2022/10/10 08:47:01;;;;;;;11.25;1.80;;;11.20;99.90;;;;;;4993857;28;20046;-66
2022/10/10 08:49:33;;;;;;;6.32;1.55;;;11.20;99.90;;;;;;5009120;28;20077;-66
2022/10/10 08:52:41;;;;;;;16.70;2.00;;;11.20;99.90;;;;;;5010061;28;20050;-66
2022/10/10 08:55:37;;;;;;;10.30;1.67;;;11.30;99.90;;;;;;5030817;28;20052;-65
2022/10/10 08:58:17;;;;;;;10.13;2.08;;;11.30;99.90;;;;;;5013275;28;20068;-67
2022/10/10 09:00:47;;;;;;;10.77;2.15;;;11.40;99.90;;;;;;5028622;28;20427;-66
2022/10/10 09:03:21;;;;;;;12.82;2.42;;;11.40;99.90;;;;;;5030622;28;20137;-66
2022/10/10 09:06:00;;;;;;;;;;;11.40;99.90;;;;;;5027733;28;20522;-66
2022/10/10 09:08:33;;;;;;;5.88;1.52;;;11.40;99.90;;;;;;5030151;28;20371;-67
2022/10/10 09:11:13;;;;;;;8.70;1.77;;;11.50;99.90;;;;;;5027839;28;20049;-67
2022/10/10 09:14:07;;;;;;;16.23;2.50;;;11.60;99.90;;;;;;5030297;28;20521;-65
2022/10/10 09:16:55;;;;;;;8.38;1.50;;;11.70;99.90;;;;;;5020057;28;20041;-65
2022/10/10 09:19:54;;;;;;;10.13;1.92;;;11.70;99.90;;;;;;5013874;28;20045;-65
2022/10/10 09:22:26;;;;;;;9.30;1.90;;;11.80;99.90;;;;;;5015613;28;20049;-64
2022/10/10 09:25:17;;;;;;;11.18;2.30;;;11.80;99.90;;;;;;4996487;28;20073;-65
2022/10/10 09:27:50;;;;;;;8.43;1.60;;;11.80;99.90;;;;;;5012635;28;20049;-66
2022/10/10 09:30:18;;;;;;;10.88;1.98;;;11.90;99.90;;;;;;5012481;28;20048;-67
2022/10/10 09:32:51;;;;;;;10.98;1.95;;;11.90;99.90;;;;;;5012564;28;20123;-65
2022/10/10 09:35:22;;;;;;;9.15;1.77;;;11.90;99.90;;;;;;5030073;28;20077;-64
2022/10/10 09:37:50;;;;;;;15.38;2.83;;;11.90;99.90;;;;;;5030246;28;20050;-65
2022/10/10 09:40:29;;;;;;;9.93;2.15;;;12.00;99.90;;;;;;5012401;28;20056;-65
2022/10/10 09:42:56;;;;;;;14.07;4.03;;;12.10;99.90;;;;;;5012440;28;20053;-66
2022/10/10 09:45:24;;;;;;;22.00;3.95;;;12.10;99.90;;;;;;5029888;28;20046;-66
2022/10/10 09:47:53;;;;;;;10.52;2.05;;;12.20;99.90;;;;;;5030507;28;20132;-65
2022/10/10 09:50:19;;;;;;;8.40;1.92;;;12.40;99.90;;;;;;5030057;28;20096;-65
2022/10/10 09:52:46;;;;;;;13.40;2.28;;;12.50;99.90;;;;;;5029729;28;20415;-64
2022/10/10 09:55:28;;;;;;;14.07;2.45;;;12.60;99.90;;;;;;5029735;28;20128;-64
2022/10/10 09:57:58;;;;;;;18.00;2.55;;;12.70;99.90;;;;;;5001413;28;20049;-65
2022/10/10 10:00:27;;;;;;;14.50;2.65;;;12.80;99.90;;;;;;5029548;28;20128;-65
2022/10/10 10:03:14;;;;;;;6.13;2.08;;;12.80;99.90;;;;;;5012121;28;20049;-65
2022/10/10 10:05:54;;;;;;;14.68;2.35;;;12.80;99.90;;;;;;5028964;28;20059;-65
2022/10/10 10:08:32;;;;;;;12.50;2.53;;;12.80;99.90;;;;;;5011746;28;20125;-64
2022/10/10 10:10:59;;;;;;;10.90;1.83;;;12.90;99.90;;;;;;5011953;28;20488;-65
2022/10/10 10:13:34;;;;;;;21.08;2.35;;;12.90;99.90;;;;;;5019080;28;20057;-66
2022/10/10 10:16:03;;;;;;;10.55;2.20;;;12.90;99.90;;;;;;5030059;28;20121;-65
2022/10/10 10:18:36;;;;;;;8.20;2.25;;;12.90;99.90;;;;;;5030048;28;20273;-63
2022/10/10 10:21:12;;;;;;;11.10;2.05;;;12.90;99.90;;;;;;5029447;28;20045;-64
2022/10/10 10:23:50;;;;;;;16.27;2.22;;;12.80;99.90;;;;;;5029381;28;20092;-66
2022/10/10 10:26:26;;;;;;;21.48;3.03;;;12.90;99.90;;;;;;5029064;28;20037;-65
2022/10/10 10:28:53;;;;;;;11.70;2.55;;;12.90;99.90;;;;;;5029014;28;20049;-66
2022/10/10 10:31:51;;;;;;;12.90;2.08;;;12.90;99.90;;;;;;5028667;28;20128;-66
2022/10/10 10:34:36;;;;;;;7.45;1.70;;;13.00;99.90;;;;;;5002374;28;20068;-66
2022/10/10 10:37:10;;;;;;;17.65;3.53;;;13.00;99.90;;;;;;5028560;28;20055;-66
2022/10/10 10:40:03;;;;;;;8.20;2.05;;;13.00;99.90;;;;;;5011684;28;20045;-64
2022/10/10 10:42:30;;;;;;;9.25;1.90;;;13.20;99.90;;;;;;5011269;28;20044;-65
2022/10/10 10:45:00;;;;;;;8.82;1.83;;;13.20;99.90;;;;;;5028726;28;20049;-66
2022/10/10 10:47:33;;;;;;;9.23;2.30;;;13.20;99.90;;;;;;5010863;28;20072;-65
2022/10/10 10:50:14;;;;;;;10.18;2.15;;;13.30;99.90;;;;;;5028434;28;20053;-66
2022/10/10 10:53:12;;;;;;;18.13;2.28;;;13.30;99.90;;;;;;5028355;28;20057;-64
2022/10/10 10:55:39;;;;;;;19.90;4.38;;;13.40;99.90;;;;;;5010818;28;20480;-65
2022/10/10 10:58:27;;;;;;;11.48;1.88;;;13.50;99.90;;;;;;5028183;28;20060;-66
2022/10/10 11:01:29;;;;;;;14.65;2.17;;;13.70;99.90;;;;;;5028178;28;20049;-65
2022/10/10 11:04:33;;;;;;;9.57;2.33;;;13.70;99.90;;;;;;5015904;28;20049;-65
2022/10/10 11:07:22;;;;;;;15.10;2.08;;;13.70;99.90;;;;;;5013936;28;20455;-64
2022/10/10 11:10:00;;;;;;;15.23;2.05;;;13.80;99.90;;;;;;5010802;28;20049;-66
2022/10/10 11:12:49;;;;;;;9.75;3.75;;;13.80;99.90;;;;;;5011069;28;20411;-66
2022/10/10 11:15:26;;;;;;;7.07;1.77;;;13.80;99.90;;;;;;5026713;28;20052;-65
2022/10/10 11:18:24;;;;;;;11.10;1.88;;;13.90;99.90;;;;;;5013552;28;20053;-68
2022/10/10 11:20:57;;;;;;;9.48;1.83;;;13.90;99.90;;;;;;5028232;28;20057;-66
2022/10/10 11:23:28;;;;;;;11.40;2.55;;;14.00;99.90;;;;;;5010481;28;20068;-65
2022/10/10 11:26:03;;;;;;;9.13;2.72;;;14.00;99.90;;;;;;5009076;28;20067;-65
2022/10/10 11:28:45;;;;;;;12.10;2.47;;;14.10;99.90;;;;;;4993511;28;20508;-66
2022/10/10 11:31:20;;;;;;;4.47;1.52;;;14.10;99.90;;;;;;5001864;28;20424;-65
2022/10/10 11:33:50;;;;;;;9.48;1.77;;;14.10;99.90;;;;;;5010556;28;20468;-67
2022/10/10 11:36:18;;;;;;;13.00;2.55;;;14.20;99.90;;;;;;5009870;28;20213;-65
2022/10/10 11:38:50;;;;;;;16.13;1.85;;;14.30;99.90;;;;;;5010649;28;20053;-64
2022/10/10 11:41:38;;;;;;;11.80;1.88;;;14.30;99.90;;;;;;5027931;28;20455;-65
2022/10/10 11:44:07;;;;;;;15.18;2.38;;;14.30;99.90;;;;;;5010029;28;20193;-66
2022/10/10 11:46:49;;;;;;;7.85;2.03;;;14.30;99.90;;;;;;5010136;28;20516;-65
2022/10/10 11:49:21;;;;;;;7.20;1.98;;;14.30;99.90;;;;;;5027540;28;20060;-65
2022/10/10 11:51:56;;;;;;;8.80;1.38;;;14.40;99.90;;;;;;5027955;28;20045;-65
2022/10/10 11:54:45;;;;;;;9.30;1.50;;;14.40;99.90;;;;;;5012606;28;20124;-65
2022/10/10 11:57:32;;;;;;;8.05;1.88;;;14.40;99.90;;;;;;5027985;28;20488;-65
2022/10/10 12:00:03;;;;;;;8.32;1.85;;;14.40;99.90;;;;;;5014262;28;20049;-65
2022/10/10 12:02:35;;;;;;;4.63;1.10;;;14.50;99.90;;;;;;5010788;28;20049;-66
2022/10/10 12:05:04;;;;;;;7.75;1.40;;;14.50;99.90;;;;;;5009864;28;20084;-66
2022/10/10 12:07:35;;;;;;;8.98;1.60;;;14.50;99.90;;;;;;5010187;28;20087;-64
2022/10/10 12:10:08;;;;;;;9.60;1.77;;;14.60;99.90;;;;;;5026490;28;20127;-64
2022/10/10 12:12:38;;;;;;;8.13;1.70;;;14.60;99.90;;;;;;5009984;28;20053;-65
2022/10/10 12:15:05;;;;;;;12.63;2.20;;;14.60;99.90;;;;;;5010279;28;20076;-66
2022/10/10 12:17:33;;;;;;;10.82;2.35;;;14.70;99.90;;;;;;4999060;28;20128;-65
2022/10/10 12:20:15;;;;;;;11.25;1.60;;;14.70;99.90;;;;;;5009340;28;20037;-64
2022/10/10 12:22:42;;;;;;;10.68;1.55;;;14.80;99.90;;;;;;5000013;28;20488;-65
2022/10/10 12:25:41;;;;;;;10.45;1.73;;;14.80;99.90;;;;;;5009969;28;20128;-65
2022/10/10 12:28:14;;;;;;;8.65;1.35;;;14.90;99.90;;;;;;5003394;28;20060;-65
2022/10/10 12:30:56;;;;;;;6.78;1.73;;;15.00;99.90;;;;;;5027131;28;20120;-65
2022/10/10 12:33:27;;;;;;;12.87;1.30;;;15.00;99.90;;;;;;5027212;28;20061;-64
2022/10/10 12:35:54;;;;;;;11.82;2.50;;;15.00;99.90;;;;;;5027198;28;20103;-64
2022/10/10 12:38:24;;;;;;;10.50;2.20;;;15.00;99.90;;;;;;5009671;28;20088;-64
2022/10/10 12:41:07;;;;;;;12.63;2.40;;;15.00;99.90;;;;;;5009875;28;20057;-64
2022/10/10 12:44:12;;;;;;;13.35;2.08;;;15.00;99.90;;;;;;5021068;28;20056;-64
2022/10/10 12:46:39;;;;;;;7.93;1.73;;;15.10;99.50;;;;;;5030684;28;20408;-64
2022/10/10 12:49:22;;;;;;;9.50;1.27;;;15.10;99.90;;;;;;5013345;28;20510;-64
2022/10/10 12:52:12;;;;;;;8.02;1.83;;;15.10;99.90;;;;;;5030674;28;20049;-64
2022/10/10 12:54:43;;;;;;;13.23;2.08;;;15.20;99.30;;;;;;5013170;28;20077;-65
2022/10/10 12:57:25;;;;;;;5.40;1.27;;;15.30;99.90;;;;;;5013135;28;20158;-64
2022/10/10 12:59:51;;;;;;;7.95;1.83;;;15.30;99.90;;;;;;5030524;28;20063;-65
2022/10/10 13:02:25;;;;;;;7.03;1.33;;;15.40;99.40;;;;;;5030454;28;20045;-65
2022/10/10 13:04:55;;;;;;;10.90;1.50;;;15.40;97.60;;;;;;5014135;28;20061;-65